Time;durP1;ratioP1;P1;durP2;ratioP2;P2;SDS_P1;SDS_P2;PMS_P1;PMS_P2;Temp;Humidity;BMP_temperature;BMP_pressure;BME280_temperature;BME280_humidity;BME280_pressure;Samples;Min_cycle;Max_cycle;Signal;HPM_P1;HPM_P2
2020/12/15 00:01:55;;;;;;;8.40;3.00;;;9.30;81.80;;;;;;5006243;28;20030;-78
2020/12/15 00:04:22;;;;;;;8.23;3.17;;;9.30;81.80;;;;;;5005151;28;20038;-79
2020/12/15 00:06:49;;;;;;;8.88;2.95;;;9.30;81.80;;;;;;5005834;28;20034;-80
2020/12/15 00:09:15;;;;;;;6.07;2.95;;;9.20;81.60;;;;;;5005776;28;20030;-79
2020/12/15 00:11:41;;;;;;;10.02;2.80;;;9.20;81.70;;;;;;5005897;28;20041;-77
2020/12/15 00:14:08;;;;;;;7.40;3.28;;;9.20;81.70;;;;;;5006042;28;20117;-80
2020/12/15 00:16:33;;;;;;;7.32;2.97;;;9.20;81.70;;;;;;5004736;28;20030;-79
2020/12/15 00:19:00;;;;;;;8.65;3.40;;;9.20;81.80;;;;;;5004711;28;20045;-80
2020/12/15 00:21:26;;;;;;;4.93;2.88;;;9.10;81.60;;;;;;5005295;28;20022;-80
2020/12/15 00:23:54;;;;;;;5.85;2.95;;;9.10;81.60;;;;;;5006169;28;20080;-79
2020/12/15 00:26:20;;;;;;;10.20;2.85;;;9.10;81.60;;;;;;5005180;28;20030;-79
2020/12/15 00:28:50;;;;;;;7.70;2.92;;;9.10;81.60;;;;;;5004761;28;20040;-79
2020/12/15 00:31:17;;;;;;;7.68;3.15;;;9.10;81.60;;;;;;5004840;28;20489;-80
2020/12/15 00:33:43;;;;;;;7.40;2.63;;;9.10;81.60;;;;;;4988578;28;20088;-79
2020/12/15 00:36:10;;;;;;;8.68;3.20;;;9.00;81.50;;;;;;5004626;28;20037;-79
2020/12/15 00:38:36;;;;;;;9.80;3.22;;;9.00;81.60;;;;;;4985258;28;20269;-80
2020/12/15 00:41:02;;;;;;;9.40;2.50;;;9.00;81.60;;;;;;5001683;28;20069;-80
2020/12/15 00:43:28;;;;;;;9.93;3.22;;;9.00;81.60;;;;;;4987291;28;20086;-80
2020/12/15 00:45:54;;;;;;;4.32;2.33;;;9.00;81.60;;;;;;4986804;28;20034;-78
2020/12/15 00:48:20;;;;;;;5.45;2.67;;;9.00;81.60;;;;;;5003373;28;20141;-79
2020/12/15 00:50:46;;;;;;;9.05;2.75;;;8.90;81.40;;;;;;5006118;28;20022;-80
2020/12/15 00:53:12;;;;;;;4.72;2.40;;;8.90;81.50;;;;;;4987986;28;20113;-79
2020/12/15 00:55:38;;;;;;;6.60;2.40;;;8.90;81.50;;;;;;5007904;28;20124;-79
2020/12/15 00:58:04;;;;;;;5.75;2.78;;;8.90;81.50;;;;;;5009923;28;20466;-78
2020/12/15 01:00:30;;;;;;;6.20;2.20;;;8.90;81.50;;;;;;5009237;28;20026;-79
2020/12/15 01:02:56;;;;;;;7.43;2.65;;;8.90;81.50;;;;;;5008331;28;20037;-78
2020/12/15 01:05:25;;;;;;;7.00;2.58;;;8.90;81.50;;;;;;5007941;28;20057;-78
2020/12/15 01:07:54;;;;;;;6.63;2.58;;;8.90;81.50;;;;;;5008125;28;20026;-78
2020/12/15 01:10:21;;;;;;;8.88;2.83;;;8.90;81.50;;;;;;5008015;28;20030;-79
2020/12/15 01:12:49;;;;;;;5.68;2.25;;;8.90;81.60;;;;;;5009139;28;20038;-80
2020/12/15 01:15:16;;;;;;;9.45;2.80;;;8.80;81.40;;;;;;5009218;28;20030;-79
2020/12/15 01:17:43;;;;;;;9.55;2.95;;;8.80;81.40;;;;;;5008074;28;20038;-78
2020/12/15 01:20:10;;;;;;;5.50;2.38;;;8.80;81.40;;;;;;5007625;28;20053;-79
2020/12/15 01:22:39;;;;;;;6.95;2.85;;;8.80;81.40;;;;;;5007938;28;20426;-80
2020/12/15 01:25:09;;;;;;;8.43;2.88;;;8.80;81.40;;;;;;4992203;28;20037;-79
2020/12/15 01:27:41;;;;;;;5.60;2.30;;;8.80;81.40;;;;;;5008009;28;20026;-78
2020/12/15 01:30:14;;;;;;;7.05;2.20;;;8.80;81.40;;;;;;5007405;28;20037;-77
2020/12/15 01:33:12;;;;;;;7.55;2.78;;;8.80;81.40;;;;;;4975412;28;20509;-78
2020/12/15 01:36:01;;;;;;;9.80;2.78;;;8.70;81.30;;;;;;5008829;28;20132;-78
2020/12/15 01:38:41;;;;;;;6.00;2.08;;;8.70;81.30;;;;;;5007500;28;20034;-79
2020/12/15 01:41:07;;;;;;;11.13;2.45;;;8.70;81.30;;;;;;5007421;28;20595;-78
2020/12/15 01:43:34;;;;;;;6.70;2.63;;;8.70;81.30;;;;;;5007364;28;20022;-80
2020/12/15 01:46:01;;;;;;;6.20;2.03;;;8.70;81.40;;;;;;5007406;28;20026;-77
2020/12/15 01:48:31;;;;;;;6.28;2.13;;;8.70;81.40;;;;;;5006812;28;20137;-78
2020/12/15 01:51:00;;;;;;;11.68;2.63;;;8.70;81.90;;;;;;5007213;28;20041;-77
2020/12/15 01:53:28;;;;;;;8.02;2.63;;;8.70;81.40;;;;;;5007181;28;20072;-78
2020/12/15 01:55:54;;;;;;;5.97;2.65;;;8.70;81.40;;;;;;5007102;28;20053;-77
2020/12/15 01:58:20;;;;;;;5.68;2.08;;;8.70;81.40;;;;;;4990832;28;20038;-78
2020/12/15 02:01:00;;;;;;;5.40;1.85;;;8.60;81.20;;;;;;5007040;28;20036;-76
2020/12/15 02:03:27;;;;;;;4.18;2.00;;;8.60;81.20;;;;;;5007731;28;20054;-78
2020/12/15 02:06:12;;;;;;;9.60;2.70;;;8.60;81.20;;;;;;5006491;28;20060;-76
2020/12/15 02:08:56;;;;;;;5.88;2.40;;;8.60;81.20;;;;;;4993195;28;20033;-80
2020/12/15 02:11:23;;;;;;;5.82;3.00;;;8.60;81.20;;;;;;5007196;28;20041;-77
2020/12/15 02:13:52;;;;;;;6.90;2.40;;;8.60;81.20;;;;;;5007399;28;20136;-80
2020/12/15 02:16:19;;;;;;;8.57;2.17;;;8.60;81.30;;;;;;5007058;28;20025;-80
2020/12/15 02:18:52;;;;;;;6.03;2.88;;;8.60;81.30;;;;;;5006795;28;20116;-77
2020/12/15 02:21:18;;;;;;;7.43;2.17;;;8.60;81.30;;;;;;4990439;28;20481;-77
2020/12/15 02:23:53;;;;;;;6.15;2.22;;;8.60;81.30;;;;;;5007463;28;20034;-79
2020/12/15 02:26:43;;;;;;;5.90;2.20;;;8.50;81.10;;;;;;5007930;28;20026;-80
2020/12/15 02:29:10;;;;;;;4.65;2.25;;;8.50;81.10;;;;;;5006570;28;20453;-79
2020/12/15 02:31:35;;;;;;;5.57;2.85;;;8.40;81.00;;;;;;5007822;28;20034;-78
2020/12/15 02:34:02;;;;;;;5.05;1.83;;;8.50;81.20;;;;;;4990763;28;20037;-82
2020/12/15 02:36:30;;;;;;;7.82;2.58;;;8.40;81.00;;;;;;5006877;28;20034;-78
2020/12/15 02:39:17;;;;;;;7.50;2.17;;;8.40;81.00;;;;;;5006541;28;20030;-77
2020/12/15 02:41:54;;;;;;;4.78;2.05;;;8.40;81.00;;;;;;5006766;28;20381;-77
2020/12/15 02:44:23;;;;;;;5.63;1.80;;;8.40;81.10;;;;;;5006955;28;20338;-79
2020/12/15 02:46:58;;;;;;;5.15;2.50;;;8.40;81.10;;;;;;5005588;28;20469;-79
2020/12/15 02:49:25;;;;;;;7.78;2.10;;;8.40;81.10;;;;;;5009901;28;20100;-81
2020/12/15 02:51:51;;;;;;;4.38;1.80;;;8.30;80.90;;;;;;5009275;28;20109;-80
2020/12/15 02:54:33;;;;;;;3.30;2.00;;;8.40;81.10;;;;;;4995761;28;20034;-78
2020/12/15 02:56:59;;;;;;;5.15;2.08;;;8.30;80.90;;;;;;5026198;28;20499;-79
2020/12/15 02:59:26;;;;;;;5.13;1.63;;;8.30;80.90;;;;;;5009373;28;20359;-77
2020/12/15 03:01:53;;;;;;;3.85;1.67;;;8.30;80.90;;;;;;4992876;28;20037;-77
2020/12/15 03:04:21;;;;;;;4.78;1.80;;;8.30;80.90;;;;;;5009380;28;20394;-77
2020/12/15 03:06:50;;;;;;;10.30;2.28;;;8.30;80.90;;;;;;5025748;28;20080;-76
2020/12/15 03:09:28;;;;;;;3.83;1.98;;;8.20;80.70;;;;;;5025913;28;20049;-77
2020/12/15 03:11:59;;;;;;;7.63;2.20;;;8.20;80.80;;;;;;5009124;28;20477;-79
2020/12/15 03:14:32;;;;;;;8.43;2.78;;;8.20;80.80;;;;;;5009237;28;20068;-78
2020/12/15 03:16:59;;;;;;;4.80;2.30;;;8.10;80.60;;;;;;5009057;28;20038;-79
2020/12/15 03:19:27;;;;;;;11.18;2.90;;;8.10;80.60;;;;;;5010556;28;20586;-79
2020/12/15 03:21:55;;;;;;;4.18;1.90;;;8.10;80.60;;;;;;5009240;28;20034;-78
2020/12/15 03:24:21;;;;;;;5.57;2.20;;;8.10;80.70;;;;;;5009135;28;20445;-79
2020/12/15 03:26:49;;;;;;;3.63;1.88;;;8.10;80.70;;;;;;5009010;28;20431;-78
2020/12/15 03:29:16;;;;;;;3.05;1.73;;;8.00;80.50;;;;;;5025275;28;20041;-78
2020/12/15 03:31:44;;;;;;;3.30;2.10;;;8.00;80.50;;;;;;5008798;28;20030;-79
2020/12/15 03:34:14;;;;;;;6.68;2.20;;;8.00;81.00;;;;;;5025613;28;20034;-78
2020/12/15 03:36:40;;;;;;;6.05;2.35;;;8.00;80.60;;;;;;5025473;28;20110;-79
2020/12/15 03:39:07;;;;;;;5.13;1.80;;;8.00;80.60;;;;;;5008913;28;20046;-79
2020/12/15 03:41:34;;;;;;;5.03;2.15;;;7.90;80.40;;;;;;5009081;28;20041;-78
2020/12/15 03:44:09;;;;;;;7.97;1.90;;;7.90;80.50;;;;;;5008659;28;20122;-78
2020/12/15 03:46:49;;;;;;;4.05;2.03;;;7.90;80.50;;;;;;5022497;28;20105;-78
2020/12/15 03:49:17;;;;;;;5.47;2.22;;;7.90;80.50;;;;;;5005707;28;20034;-78
2020/12/15 03:51:50;;;;;;;5.50;2.53;;;7.90;80.50;;;;;;4989392;28;20061;-77
2020/12/15 03:54:39;;;;;;;4.00;2.05;;;7.90;80.50;;;;;;4979962;28;20053;-78
2020/12/15 03:57:17;;;;;;;3.33;1.75;;;7.90;80.50;;;;;;4990759;28;20121;-77
2020/12/15 04:00:05;;;;;;;5.30;1.67;;;7.90;80.50;;;;;;4988574;28;20177;-78
2020/12/15 04:02:39;;;;;;;8.55;2.72;;;7.90;80.60;;;;;;4990574;28;20113;-77
2020/12/15 04:05:12;;;;;;;4.55;1.85;;;7.90;80.50;;;;;;5005419;28;20035;-77
2020/12/15 04:07:40;;;;;;;9.60;1.65;;;7.90;80.50;;;;;;5005142;28;20049;-77
2020/12/15 04:10:06;;;;;;;11.25;3.15;;;7.90;80.60;;;;;;4988429;28;20038;-81
2020/12/15 04:12:34;;;;;;;7.90;2.50;;;7.90;80.60;;;;;;5004967;28;20061;-78
2020/12/15 04:15:00;;;;;;;6.50;1.92;;;7.80;80.40;;;;;;4972641;28;20054;-78
2020/12/15 04:17:27;;;;;;;9.07;2.25;;;7.80;80.40;;;;;;5004889;28;20074;-78
2020/12/15 04:19:53;;;;;;;4.15;2.20;;;7.90;80.60;;;;;;4988968;28;20109;-77
2020/12/15 04:22:19;;;;;;;5.18;2.17;;;7.80;80.50;;;;;;4988713;28;20473;-78
2020/12/15 04:24:50;;;;;;;4.35;1.70;;;7.80;80.50;;;;;;4992856;28;20037;-80
2020/12/15 04:27:17;;;;;;;5.75;1.90;;;7.80;80.50;;;;;;5008100;28;20100;-80
2020/12/15 04:29:43;;;;;;;6.95;2.10;;;7.80;80.50;;;;;;5025260;28;20013;-79
2020/12/15 04:32:14;;;;;;;7.28;2.42;;;7.80;80.50;;;;;;5011515;28;20125;-78
2020/12/15 04:34:51;;;;;;;4.78;1.98;;;7.80;80.50;;;;;;5011122;28;20030;-78
2020/12/15 04:37:18;;;;;;;3.70;1.70;;;7.80;80.50;;;;;;5010740;28;20440;-78
2020/12/15 04:39:53;;;;;;;8.43;2.33;;;7.80;80.50;;;;;;5012069;28;20541;-78
2020/12/15 04:42:22;;;;;;;8.95;2.42;;;7.80;80.50;;;;;;5011055;28;20121;-79
2020/12/15 04:44:51;;;;;;;7.47;2.28;;;7.80;80.50;;;;;;5011818;28;20481;-79
2020/12/15 04:47:35;;;;;;;6.22;2.13;;;7.80;80.50;;;;;;5011394;28;20053;-76
2020/12/15 04:50:06;;;;;;;;;;;7.80;80.50;;;;;;4995782;28;20358;-78
2020/12/15 04:52:56;;;;;;;8.98;2.13;;;7.80;80.50;;;;;;5011241;28;19937;-78
2020/12/15 04:55:49;;;;;;;2.90;1.80;;;7.80;80.50;;;;;;4991001;28;20045;-78
2020/12/15 04:58:20;;;;;;;9.63;2.00;;;7.80;80.50;;;;;;5011241;28;20041;-77
2020/12/15 05:00:49;;;;;;;4.40;2.10;;;7.80;80.50;;;;;;5011344;28;20393;-77
2020/12/15 05:03:47;;;;;;;2.55;1.40;;;7.80;80.50;;;;;;5002797;28;20112;-78
2020/12/15 05:06:16;;;;;;;3.92;2.30;;;7.90;80.70;;;;;;5011234;28;20026;-78
2020/12/15 05:08:48;;;;;;;6.03;2.00;;;7.80;80.50;;;;;;4994512;28;20144;-78
2020/12/15 05:11:16;;;;;;;8.43;2.65;;;7.90;80.70;;;;;;5009974;28;20091;-79
2020/12/15 05:13:42;;;;;;;3.85;2.28;;;7.90;80.70;;;;;;5027028;28;20505;-78
2020/12/15 05:16:09;;;;;;;5.60;2.20;;;7.80;80.50;;;;;;5027664;28;20089;-79
2020/12/15 05:19:04;;;;;;;2.97;1.67;;;7.90;80.80;;;;;;5007226;28;20026;-79
2020/12/15 05:21:39;;;;;;;4.72;1.92;;;7.90;80.70;;;;;;5007641;28;20069;-77
2020/12/15 05:24:10;;;;;;;4.95;2.28;;;7.90;80.70;;;;;;5007669;28;20467;-78
2020/12/15 05:26:45;;;;;;;6.13;2.35;;;7.90;80.70;;;;;;5007606;28;20034;-78
2020/12/15 05:29:17;;;;;;;4.25;1.80;;;7.90;80.70;;;;;;5007588;28;20497;-77
2020/12/15 05:32:08;;;;;;;4.40;2.03;;;7.90;80.70;;;;;;4984280;28;20053;-77
2020/12/15 05:35:09;;;;;;;9.63;2.57;;;7.90;80.70;;;;;;4989501;28;20042;-78
2020/12/15 05:37:57;;;;;;;6.35;1.90;;;7.90;80.70;;;;;;4987558;28;20049;-78
2020/12/15 05:40:43;;;;;;;6.05;2.22;;;7.90;80.70;;;;;;5006686;28;20137;-78
2020/12/15 05:43:32;;;;;;;4.50;2.15;;;7.90;80.70;;;;;;4991184;28;20061;-79
2020/12/15 05:46:02;;;;;;;4.18;1.45;;;7.90;80.80;;;;;;5007474;28;20145;-78
2020/12/15 05:48:30;;;;;;;4.47;2.20;;;7.90;80.70;;;;;;5004272;28;20054;-78
2020/12/15 05:50:57;;;;;;;9.65;2.90;;;7.90;81.30;;;;;;4999230;28;20311;-78
2020/12/15 05:53:23;;;;;;;8.07;2.10;;;7.90;80.80;;;;;;4988980;28;20132;-79
2020/12/15 05:55:49;;;;;;;5.97;2.05;;;7.90;80.80;;;;;;4988855;28;20114;-78
2020/12/15 05:58:16;;;;;;;9.60;2.03;;;7.90;80.80;;;;;;4994621;28;20033;-78
2020/12/15 06:00:42;;;;;;;5.53;2.47;;;7.90;80.80;;;;;;5008546;28;20101;-79
2020/12/15 06:03:08;;;;;;;8.48;2.03;;;7.90;80.80;;;;;;5006819;28;20045;-79
2020/12/15 06:05:36;;;;;;;5.13;1.92;;;7.90;80.90;;;;;;5007162;28;20081;-77
2020/12/15 06:08:04;;;;;;;5.03;2.15;;;7.90;80.90;;;;;;5007114;28;20045;-80
2020/12/15 06:10:31;;;;;;;9.75;2.50;;;7.90;80.90;;;;;;5008150;28;20149;-78
2020/12/15 06:13:02;;;;;;;8.13;1.88;;;7.80;80.70;;;;;;5008480;28;20232;-78
2020/12/15 06:15:29;;;;;;;8.93;2.17;;;7.90;80.90;;;;;;5006633;28;20110;-78
2020/12/15 06:17:58;;;;;;;5.38;1.85;;;7.90;80.90;;;;;;5007995;28;20030;-78
2020/12/15 06:20:37;;;;;;;11.45;2.40;;;7.80;80.80;;;;;;5007853;28;20125;-77
2020/12/15 06:23:09;;;;;;;6.90;2.22;;;7.80;80.80;;;;;;4999794;28;20456;-78
2020/12/15 06:25:36;;;;;;;2.55;2.00;;;7.90;81.00;;;;;;4995107;28;20053;-77
2020/12/15 06:28:04;;;;;;;3.83;2.30;;;7.80;80.80;;;;;;5000937;28;20453;-80
2020/12/15 06:30:41;;;;;;;6.25;2.50;;;7.80;80.80;;;;;;5017380;28;20026;-78
2020/12/15 06:33:10;;;;;;;7.75;2.78;;;7.80;80.80;;;;;;5006439;28;20050;-78
2020/12/15 06:35:37;;;;;;;2.97;1.60;;;7.90;81.00;;;;;;5007857;28;20385;-79
2020/12/15 06:38:16;;;;;;;4.50;1.83;;;7.90;81.00;;;;;;5005342;28;20145;-80
2020/12/15 06:40:46;;;;;;;6.88;2.30;;;7.80;80.80;;;;;;4998926;28;20088;-78
2020/12/15 06:43:22;;;;;;;7.20;2.13;;;7.80;80.80;;;;;;5001476;28;20045;-76
2020/12/15 06:45:48;;;;;;;3.13;1.50;;;7.80;80.80;;;;;;4989894;28;20561;-77
2020/12/15 06:48:21;;;;;;;6.72;2.05;;;7.80;80.80;;;;;;4993780;28;20125;-79
2020/12/15 06:50:47;;;;;;;7.22;2.17;;;7.80;80.80;;;;;;4998957;28;20030;-79
2020/12/15 06:53:20;;;;;;;2.72;1.83;;;7.80;80.80;;;;;;4987299;28;20039;-79
2020/12/15 06:55:56;;;;;;;2.83;1.55;;;7.80;80.80;;;;;;5002725;28;20026;-79
2020/12/15 06:58:22;;;;;;;7.43;1.85;;;7.80;80.80;;;;;;5005625;28;20033;-82
2020/12/15 07:00:48;;;;;;;1.88;1.30;;;7.80;80.80;;;;;;5017520;28;20018;-79
2020/12/15 07:03:17;;;;;;;4.00;1.95;;;7.80;80.80;;;;;;5013677;28;20112;-83
2020/12/15 07:05:43;;;;;;;9.35;2.25;;;7.80;80.90;;;;;;5012715;28;20514;-80
2020/12/15 07:08:12;;;;;;;6.28;2.28;;;7.80;80.90;;;;;;5001637;28;20080;-80
2020/12/15 07:10:42;;;;;;;6.38;2.13;;;7.70;80.70;;;;;;5004604;28;20025;-78
2020/12/15 07:13:11;;;;;;;8.70;2.15;;;7.70;80.70;;;;;;4993838;28;20038;-79
2020/12/15 07:15:38;;;;;;;9.88;2.25;;;7.70;80.70;;;;;;4994638;28;20032;-79
2020/12/15 07:18:05;;;;;;;9.60;2.15;;;7.70;80.70;;;;;;4997150;28;20113;-82
2020/12/15 07:20:31;;;;;;;5.65;2.40;;;7.70;80.80;;;;;;4993755;28;20107;-80
2020/12/15 07:22:57;;;;;;;6.70;2.65;;;7.70;80.80;;;;;;5005623;28;20117;-79
2020/12/15 07:25:23;;;;;;;8.10;2.60;;;7.70;80.90;;;;;;4987545;28;20026;-81
2020/12/15 07:27:50;;;;;;;6.60;2.50;;;7.80;81.10;;;;;;4987945;28;20093;-81
2020/12/15 07:30:18;;;;;;;6.60;2.25;;;7.80;81.10;;;;;;5005759;28;20061;-80
2020/12/15 07:32:46;;;;;;;7.32;2.42;;;7.80;81.10;;;;;;5005646;28;20365;-81
2020/12/15 07:35:20;;;;;;;5.55;1.95;;;7.80;81.00;;;;;;5004726;28;20382;-80
2020/12/15 07:37:48;;;;;;;7.70;2.22;;;7.80;81.00;;;;;;4988036;28;20026;-80
2020/12/15 07:40:17;;;;;;;14.23;2.92;;;7.80;81.00;;;;;;5005892;28;20140;-79
2020/12/15 07:42:58;;;;;;;3.88;1.80;;;7.80;81.00;;;;;;5004848;28;20117;-80
2020/12/15 07:45:26;;;;;;;9.32;2.83;;;7.80;81.10;;;;;;5005765;28;20497;-82
2020/12/15 07:47:53;;;;;;;6.32;2.10;;;7.80;81.00;;;;;;4974139;28;20062;-80
2020/12/15 07:50:27;;;;;;;9.52;2.42;;;7.80;81.10;;;;;;5001025;28;20125;-78
2020/12/15 07:52:55;;;;;;;4.47;2.08;;;7.80;81.10;;;;;;5002868;28;20335;-78
2020/12/15 07:55:23;;;;;;;11.38;2.83;;;7.80;81.10;;;;;;5000015;28;20026;-77
2020/12/15 07:57:49;;;;;;;7.18;2.28;;;7.80;81.10;;;;;;5006840;28;20026;-78
2020/12/15 08:00:19;;;;;;;7.80;2.83;;;7.80;81.10;;;;;;5002818;28;20047;-79
2020/12/15 08:02:46;;;;;;;5.80;2.35;;;7.80;81.20;;;;;;5004816;28;20166;-78
2020/12/15 08:05:16;;;;;;;3.65;1.98;;;7.80;81.20;;;;;;4994387;28;20442;-75
2020/12/15 08:07:46;;;;;;;13.52;3.15;;;7.80;81.20;;;;;;4998097;28;20038;-77
2020/12/15 08:10:13;;;;;;;5.15;2.25;;;7.80;81.20;;;;;;5010546;28;20084;-78
2020/12/15 08:12:41;;;;;;;7.95;3.40;;;7.80;81.20;;;;;;5001223;28;20316;-78
2020/12/15 08:15:07;;;;;;;4.70;2.33;;;7.80;81.30;;;;;;5010008;28;20037;-77
2020/12/15 08:17:34;;;;;;;6.07;2.42;;;7.80;81.30;;;;;;5007335;28;20079;-77
2020/12/15 08:20:04;;;;;;;6.82;2.58;;;7.80;81.30;;;;;;4997200;28;20388;-78
2020/12/15 08:22:31;;;;;;;3.63;2.20;;;7.80;81.40;;;;;;4996943;28;20029;-76
2020/12/15 08:24:57;;;;;;;4.97;2.28;;;7.80;81.50;;;;;;5008685;28;20041;-78
2020/12/15 08:27:24;;;;;;;13.77;2.88;;;7.80;81.60;;;;;;5009508;28;20378;-78
2020/12/15 08:29:50;;;;;;;13.13;3.10;;;7.80;81.50;;;;;;4997486;28;20223;-77
2020/12/15 08:32:31;;;;;;;9.70;3.05;;;7.90;81.70;;;;;;5002966;28;20029;-76
2020/12/15 08:35:01;;;;;;;7.18;2.80;;;7.90;81.70;;;;;;5001177;28;20045;-79
2020/12/15 08:37:28;;;;;;;8.02;2.75;;;8.00;81.80;;;;;;5004488;28;20061;-76
2020/12/15 08:39:54;;;;;;;8.25;2.53;;;7.90;81.60;;;;;;5005764;28;20064;-77
2020/12/15 08:42:20;;;;;;;7.00;2.47;;;8.00;81.80;;;;;;4988238;28;20544;-77
2020/12/15 08:44:47;;;;;;;11.75;3.53;;;8.00;81.80;;;;;;4988077;28;20402;-76
2020/12/15 08:47:18;;;;;;;10.70;3.08;;;8.00;81.80;;;;;;4987845;28;20057;-76
2020/12/15 08:49:45;;;;;;;10.05;3.25;;;8.00;81.90;;;;;;5004613;28;20092;-75
2020/12/15 08:52:21;;;;;;;8.02;3.17;;;8.00;81.80;;;;;;5007228;28;20121;-83
2020/12/15 08:54:48;;;;;;;10.93;3.13;;;8.00;81.90;;;;;;5007069;28;20088;-81
2020/12/15 08:57:15;;;;;;;8.55;2.65;;;8.10;82.20;;;;;;4975428;28;20144;-84
2020/12/15 08:59:42;;;;;;;7.35;2.05;;;8.20;82.80;;;;;;4993103;28;20121;-82
2020/12/15 09:02:12;;;;;;;9.73;3.17;;;8.40;83.20;;;;;;5009185;28;20034;-83
2020/12/15 09:04:39;;;;;;;13.50;4.18;;;8.60;83.60;;;;;;5009981;28;20095;-84
2020/12/15 09:07:17;;;;;;;12.45;3.47;;;8.80;83.90;;;;;;5010058;28;20427;-82
2020/12/15 09:09:43;;;;;;;11.70;2.95;;;9.00;84.20;;;;;;5008910;28;20042;-81
2020/12/15 09:12:11;;;;;;;10.75;3.20;;;9.20;84.30;;;;;;4990965;28;20038;-77
2020/12/15 09:14:38;;;;;;;15.75;3.42;;;9.40;84.60;;;;;;5005673;28;20045;-77
2020/12/15 09:17:04;;;;;;;7.50;2.92;;;9.50;84.50;;;;;;5018973;28;20041;-77
2020/12/15 09:19:30;;;;;;;10.20;2.92;;;9.50;84.40;;;;;;5008242;28;20034;-78
2020/12/15 09:22:06;;;;;;;8.30;3.08;;;9.60;84.60;;;;;;5008682;28;20033;-77
2020/12/15 09:24:42;;;;;;;7.15;2.50;;;9.60;84.50;;;;;;5008808;28;20030;-79
2020/12/15 09:27:22;;;;;;;4.03;2.47;;;9.70;84.60;;;;;;5007308;28;20481;-78
2020/12/15 09:29:49;;;;;;;4.78;1.77;;;9.70;84.60;;;;;;5022500;28;20140;-78
2020/12/15 09:32:17;;;;;;;7.30;2.00;;;9.70;84.50;;;;;;5007725;28;20728;-77
2020/12/15 09:34:44;;;;;;;9.75;3.33;;;9.70;84.50;;;;;;5007950;28;20330;-77
2020/12/15 09:37:10;;;;;;;4.97;2.42;;;9.60;84.40;;;;;;5008312;28;20052;-78
2020/12/15 09:39:36;;;;;;;6.72;1.95;;;9.60;84.40;;;;;;5008329;28;20121;-76
2020/12/15 09:42:03;;;;;;;4.93;2.25;;;9.60;84.40;;;;;;5006768;28;20037;-77
2020/12/15 09:44:30;;;;;;;11.02;2.65;;;9.60;84.40;;;;;;5007085;28;20038;-77
2020/12/15 09:46:56;;;;;;;8.40;2.67;;;9.60;84.40;;;;;;5006263;28;20137;-78
2020/12/15 09:49:22;;;;;;;7.53;2.28;;;9.60;84.40;;;;;;5008291;28;20030;-78
2020/12/15 09:51:48;;;;;;;13.25;2.65;;;9.60;84.50;;;;;;5007979;28;20030;-79
2020/12/15 09:54:14;;;;;;;8.98;2.08;;;9.60;84.50;;;;;;5008837;28;20045;-79
2020/12/15 09:56:44;;;;;;;11.23;2.30;;;9.70;84.70;;;;;;5007056;28;20057;-77
2020/12/15 09:59:14;;;;;;;6.22;2.15;;;9.70;84.70;;;;;;5006155;28;20359;-77
2020/12/15 10:01:41;;;;;;;6.13;2.03;;;9.70;84.60;;;;;;5007176;28;20036;-78
2020/12/15 10:04:08;;;;;;;8.80;2.47;;;9.70;84.60;;;;;;5007210;28;20057;-78
2020/12/15 10:06:35;;;;;;;6.65;2.08;;;9.70;84.60;;;;;;5006472;28;20035;-78
2020/12/15 10:09:01;;;;;;;8.13;2.20;;;9.80;84.80;;;;;;5007711;28;20060;-78
2020/12/15 10:11:27;;;;;;;5.03;2.30;;;9.80;84.70;;;;;;5006174;28;20655;-77
2020/12/15 10:13:53;;;;;;;11.30;2.90;;;9.80;84.80;;;;;;5004057;28;20038;-77
2020/12/15 10:16:19;;;;;;;7.28;2.35;;;9.90;84.90;;;;;;5006277;28;20379;-78
2020/12/15 10:18:45;;;;;;;6.90;2.20;;;9.90;84.90;;;;;;5007596;28;20064;-77
2020/12/15 10:21:11;;;;;;;4.88;2.47;;;9.90;84.80;;;;;;5006138;28;20065;-78
2020/12/15 10:23:37;;;;;;;7.28;2.38;;;9.90;85.30;;;;;;5006274;28;20092;-77
2020/12/15 10:26:05;;;;;;;6.05;2.30;;;10.00;85.00;;;;;;5007692;28;20041;-77
2020/12/15 10:28:31;;;;;;;6.00;1.95;;;10.00;84.90;;;;;;5021622;28;20064;-78
2020/12/15 10:30:57;;;;;;;6.32;2.05;;;10.00;84.90;;;;;;5005708;28;20025;-77
2020/12/15 10:33:23;;;;;;;5.15;1.80;;;10.00;84.80;;;;;;5004928;28;20188;-77
2020/12/15 10:35:49;;;;;;;8.10;2.38;;;10.10;85.10;;;;;;5006881;28;20466;-77
2020/12/15 10:38:15;;;;;;;5.80;2.00;;;10.10;85.00;;;;;;5006912;28;20113;-78
2020/12/15 10:40:41;;;;;;;5.03;2.08;;;10.10;85.00;;;;;;5007340;28;20030;-78
2020/12/15 10:43:07;;;;;;;7.82;2.45;;;10.10;84.90;;;;;;5002703;28;20531;-78
2020/12/15 10:45:34;;;;;;;5.05;2.35;;;10.10;84.90;;;;;;5003617;28;20390;-78
2020/12/15 10:48:01;;;;;;;4.72;2.10;;;10.20;85.10;;;;;;4988979;28;20050;-78
2020/12/15 10:50:28;;;;;;;7.55;2.17;;;10.20;85.00;;;;;;5007225;28;20037;-79
2020/12/15 10:52:55;;;;;;;5.63;2.60;;;10.20;85.00;;;;;;5006896;28;20442;-79
2020/12/15 10:55:20;;;;;;;7.78;2.08;;;10.20;85.00;;;;;;5005949;28;20116;-78
2020/12/15 10:57:46;;;;;;;5.35;2.10;;;10.20;85.00;;;;;;5006843;28;20026;-78
2020/12/15 11:00:12;;;;;;;6.63;2.35;;;10.10;84.70;;;;;;5006540;28;20041;-78
2020/12/15 11:02:38;;;;;;;4.82;2.30;;;10.20;84.90;;;;;;5005184;28;20049;-78
2020/12/15 11:05:04;;;;;;;4.85;1.48;;;10.10;84.70;;;;;;5006974;28;20046;-78
2020/12/15 11:07:30;;;;;;;8.85;2.47;;;10.20;84.90;;;;;;4988439;28;20048;-85
2020/12/15 11:09:56;;;;;;;5.90;2.03;;;10.10;84.70;;;;;;5018452;28;20022;-78
2020/12/15 11:12:23;;;;;;;16.20;3.00;;;10.20;84.90;;;;;;5003355;28;20065;-81
2020/12/15 11:14:49;;;;;;;7.80;2.47;;;10.20;84.90;;;;;;5005813;28;20369;-78
2020/12/15 11:17:15;;;;;;;8.05;2.33;;;10.20;84.90;;;;;;5004608;28;20033;-80
2020/12/15 11:19:41;;;;;;;5.97;2.42;;;10.20;84.80;;;;;;5005496;28;20030;-78
2020/12/15 11:22:08;;;;;;;7.20;2.22;;;10.20;84.70;;;;;;5006123;28;20339;-78
2020/12/15 11:24:34;;;;;;;6.07;2.42;;;10.30;84.80;;;;;;5021170;28;20025;-78
2020/12/15 11:27:00;;;;;;;7.18;2.13;;;10.30;84.80;;;;;;5017469;28;20022;-77
2020/12/15 11:29:26;;;;;;;6.47;2.72;;;10.30;84.80;;;;;;5006798;28;20045;-78
2020/12/15 11:31:52;;;;;;;5.03;2.22;;;10.30;84.80;;;;;;5005548;28;20029;-78
2020/12/15 11:34:19;;;;;;;7.47;2.35;;;10.30;84.80;;;;;;5021479;28;20104;-77
2020/12/15 11:36:45;;;;;;;9.73;2.78;;;10.30;84.80;;;;;;5021275;28;20032;-78
2020/12/15 11:39:12;;;;;;;8.05;2.40;;;10.30;84.70;;;;;;4998144;28;20489;-78
2020/12/15 11:41:39;;;;;;;7.97;2.05;;;10.30;84.70;;;;;;4986691;28;20041;-78
2020/12/15 11:44:06;;;;;;;5.45;2.45;;;10.30;84.70;;;;;;5004839;28;20034;-80
2020/12/15 11:46:32;;;;;;;5.28;2.53;;;10.30;84.60;;;;;;5001384;28;20362;-79
2020/12/15 11:48:58;;;;;;;3.88;1.83;;;10.30;84.60;;;;;;5004035;28;20059;-79
2020/12/15 11:51:24;;;;;;;9.25;2.60;;;10.30;84.60;;;;;;4988249;28;20026;-80
2020/12/15 11:53:50;;;;;;;6.15;2.30;;;10.30;84.50;;;;;;5021302;28;20151;-80
2020/12/15 11:56:17;;;;;;;8.55;2.40;;;10.30;84.40;;;;;;5006166;28;20029;-79
2020/12/15 11:58:44;;;;;;;7.28;2.70;;;10.30;84.40;;;;;;5004659;28;20034;-78
2020/12/15 12:01:11;;;;;;;4.50;2.15;;;10.30;84.40;;;;;;5004612;28;20251;-78
2020/12/15 12:03:37;;;;;;;4.82;2.38;;;10.40;84.50;;;;;;5005342;28;20034;-78
2020/12/15 12:06:03;;;;;;;6.25;2.13;;;10.30;84.30;;;;;;5004180;28;20084;-79
2020/12/15 12:08:30;;;;;;;7.43;2.50;;;10.30;84.30;;;;;;5005283;28;20133;-80
2020/12/15 12:10:56;;;;;;;6.78;2.30;;;10.40;84.50;;;;;;5000552;28;20026;-78
2020/12/15 12:13:22;;;;;;;6.82;2.40;;;10.40;84.40;;;;;;4994992;28;20041;-78
2020/12/15 12:15:48;;;;;;;4.88;2.33;;;10.40;84.40;;;;;;4986339;28;20030;-79
2020/12/15 12:18:15;;;;;;;4.60;1.98;;;10.40;84.40;;;;;;4989933;28;20579;-80
2020/12/15 12:20:41;;;;;;;9.68;3.28;;;10.40;84.30;;;;;;4987693;28;20116;-79
2020/12/15 12:23:07;;;;;;;5.63;3.05;;;10.40;84.30;;;;;;5004898;28;20114;-78
2020/12/15 12:25:33;;;;;;;4.75;2.38;;;10.40;84.30;;;;;;5005362;28;20092;-78
2020/12/15 12:27:59;;;;;;;3.83;2.30;;;10.40;84.30;;;;;;5003896;28;20030;-78
2020/12/15 12:30:25;;;;;;;5.40;2.70;;;10.50;84.50;;;;;;5005776;28;20037;-79
2020/12/15 12:32:51;;;;;;;5.15;2.72;;;10.50;84.50;;;;;;5001741;28;20066;-77
2020/12/15 12:35:17;;;;;;;4.18;2.50;;;10.50;84.40;;;;;;5017949;28;20070;-79
2020/12/15 12:37:43;;;;;;;7.43;2.67;;;10.50;84.40;;;;;;5005301;28;20056;-78
2020/12/15 12:40:09;;;;;;;4.78;2.65;;;10.60;84.50;;;;;;5005076;28;20102;-79
2020/12/15 12:42:36;;;;;;;6.13;2.92;;;10.60;84.50;;;;;;5003642;28;20464;-80
2020/12/15 12:45:02;;;;;;;5.40;2.53;;;10.70;85.10;;;;;;5003959;28;20065;-80
2020/12/15 12:47:28;;;;;;;5.45;2.70;;;10.70;84.60;;;;;;5004381;28;20140;-81
2020/12/15 12:49:53;;;;;;;6.15;2.78;;;10.80;84.70;;;;;;4989328;28;20404;-80
2020/12/15 12:52:19;;;;;;;5.10;2.22;;;10.80;84.60;;;;;;5013176;28;20041;-80
2020/12/15 12:54:45;;;;;;;8.57;2.75;;;10.90;84.70;;;;;;4994268;28;20125;-79
2020/12/15 12:57:11;;;;;;;11.02;3.42;;;10.90;84.60;;;;;;5007970;28;20132;-80
2020/12/15 12:59:38;;;;;;;8.38;3.17;;;10.90;84.60;;;;;;5007582;28;20528;-80
2020/12/15 13:02:03;;;;;;;8.48;3.83;;;10.90;84.60;;;;;;5005623;28;20057;-79
2020/12/15 13:04:31;;;;;;;7.38;3.50;;;11.00;84.80;;;;;;5008440;28;20071;-78
2020/12/15 13:06:57;;;;;;;6.18;3.45;;;11.00;84.90;;;;;;5022312;28;20468;-77